Aboyne, United Kingdom
Current Conditions -  °F | °C
As of 2:50 PM on Friday 19 Dec 2014 (Local Time) from EGPD Reporting Station
Clear Clear  
Wind Chill: 31°   Ceiling: Unl
Heat Index: 39°   Visibility: 6mi
Dew Point: 28°   Wind: 14mph
Humidity: 65%   Direction: 290°WNW
Pressure: 29.5"   Gusts: NA
Location:  57.08°N, 2.78°W
Report Text: EGPD 191450Z 29012KT 250V320 CAVOK 04/M02 Q0999 NOSIG
Loading
Personal Weather Stations






























Interactive Weather Map New forecast layout! Learn more

10-Day Weather Forecast

Advertisements
Track Severe Weather on mobile